Time;durP1;ratioP1;P1;durP2;ratioP2;P2;SDS_P1;SDS_P2;PMS_P1;PMS_P2;Temp;Humidity;BMP_temperature;BMP_pressure;BME280_temperature;BME280_humidity;BME280_pressure;Samples;Min_cycle;Max_cycle;Signal;HPM_P1;HPM_P2
2024/03/14 00:05:01;;;;;;;48.23;24.63;;;6.00;99.90;;;;;;5112473;28;20216;-73
2024/03/14 00:08:00;;;;;;;47.90;25.90;;;6.00;99.90;;;;;;5112731;28;20300;-72
2024/03/14 00:10:51;;;;;;;47.37;25.33;;;5.90;99.90;;;;;;5113403;28;20573;-72
2024/03/14 00:13:38;;;;;;;50.80;26.57;;;6.00;99.90;;;;;;5112135;28;20207;-72
2024/03/14 00:16:30;;;;;;;49.07;26.60;;;6.00;99.90;;;;;;5098361;28;20207;-72
2024/03/14 00:19:44;;;;;;;51.03;27.53;;;6.10;99.90;;;;;;5112840;28;20263;-72
2024/03/14 00:22:42;;;;;;;54.63;28.07;;;6.10;99.90;;;;;;5112199;28;20690;-73
2024/03/14 00:25:30;;;;;;;59.57;30.20;;;6.10;99.90;;;;;;5112340;28;20197;-73
2024/03/14 00:28:39;;;;;;;54.00;27.97;;;6.10;99.90;;;;;;5098878;28;20190;-73
2024/03/14 00:31:27;;;;;;;51.20;28.33;;;6.10;99.90;;;;;;5111565;28;20199;-72
2024/03/14 00:34:17;;;;;;;52.67;28.33;;;6.10;99.90;;;;;;5111956;28;20215;-72
2024/03/14 00:37:22;;;;;;;53.00;28.40;;;6.10;99.90;;;;;;5097135;28;20226;-72
2024/03/14 00:40:11;;;;;;;49.60;27.60;;;6.10;99.90;;;;;;5098636;28;20677;-73
2024/03/14 00:42:59;;;;;;;51.57;27.30;;;6.10;99.90;;;;;;5112608;28;20215;-73
2024/03/14 00:45:46;;;;;;;52.20;27.50;;;6.00;99.90;;;;;;5097580;28;20327;-73
2024/03/14 00:51:44;;;;;;;53.40;27.80;;;6.10;99.90;;;;;;5049386;28;20279;-73
2024/03/14 00:54:32;;;;;;;56.83;29.03;;;6.10;99.90;;;;;;5036913;28;20213;-72
2024/03/14 00:57:20;;;;;;;56.43;29.67;;;6.10;99.90;;;;;;5050194;28;20204;-73
2024/03/14 01:00:11;;;;;;;60.70;31.13;;;6.00;99.90;;;;;;5036311;28;20695;-72
2024/03/14 01:03:00;;;;;;;68.13;32.90;;;6.00;99.90;;;;;;5050219;28;20223;-73
2024/03/14 01:05:47;;;;;;;61.30;31.53;;;5.80;99.90;;;;;;5049755;28;20684;-73
2024/03/14 01:08:36;;;;;;;58.30;31.47;;;5.80;99.90;;;;;;5049777;28;20271;-72
2024/03/14 01:11:23;;;;;;;63.90;32.47;;;5.90;99.90;;;;;;5036018;28;20721;-74
2024/03/14 01:14:13;;;;;;;61.90;33.00;;;5.80;99.90;;;;;;5050277;28;20204;-73
2024/03/14 01:17:24;;;;;;;71.13;32.83;;;5.90;99.90;;;;;;5049458;28;20200;-73
2024/03/14 01:20:11;;;;;;;61.83;32.93;;;5.90;99.90;;;;;;5049464;28;20244;-73
2024/03/14 01:23:07;;;;;;;64.20;32.17;;;5.90;99.90;;;;;;5049291;28;20631;-73
2024/03/14 01:25:54;;;;;;;64.03;32.73;;;6.00;99.90;;;;;;5050044;28;20196;-73
2024/03/14 01:28:42;;;;;;;65.70;32.83;;;6.00;99.90;;;;;;5083658;28;20198;-73
2024/03/14 01:31:32;;;;;;;73.07;33.33;;;6.00;99.90;;;;;;5112880;28;20199;-72
2024/03/14 01:34:20;;;;;;;68.50;33.33;;;6.00;99.90;;;;;;5111453;28;20710;-73
2024/03/14 01:37:10;;;;;;;66.13;32.63;;;6.00;99.90;;;;;;5097599;28;20241;-73
2024/03/14 01:39:58;;;;;;;56.17;29.37;;;6.00;99.90;;;;;;5111822;28;20194;-73
2024/03/14 01:42:45;;;;;;;63.87;31.87;;;6.00;99.90;;;;;;5110854;28;20212;-73
2024/03/14 01:45:32;;;;;;;59.87;31.53;;;6.00;99.90;;;;;;5097094;28;20309;-73
2024/03/14 01:48:20;;;;;;;61.07;31.03;;;6.10;99.90;;;;;;5111377;28;20195;-73
2024/03/14 01:51:07;;;;;;;62.20;31.87;;;6.10;99.90;;;;;;5097145;28;20196;-73
2024/03/14 01:53:55;;;;;;;59.60;30.57;;;6.10;99.90;;;;;;5111366;28;20193;-73
2024/03/14 01:56:57;;;;;;;61.57;31.30;;;6.10;99.90;;;;;;5111585;28;20276;-73
2024/03/14 01:59:49;;;;;;;65.50;33.17;;;6.10;99.90;;;;;;5111669;28;20256;-73
2024/03/14 02:02:38;;;;;;;67.20;33.50;;;6.00;99.90;;;;;;5111402;28;20241;-73
2024/03/14 02:05:34;;;;;;;63.43;32.37;;;6.00;99.90;;;;;;5111299;28;20216;-73
2024/03/14 02:08:22;;;;;;;64.83;32.23;;;5.90;99.90;;;;;;5111406;28;20584;-73
2024/03/14 02:11:09;;;;;;;58.80;31.20;;;5.90;99.90;;;;;;5111123;28;20195;-73
2024/03/14 02:13:57;;;;;;;64.63;31.40;;;5.80;99.90;;;;;;5111137;28;20188;-73
2024/03/14 02:16:44;;;;;;;58.90;29.73;;;5.80;99.90;;;;;;5112915;28;20562;-73
2024/03/14 02:19:33;;;;;;;54.97;29.30;;;5.80;99.90;;;;;;5097255;28;20297;-73
2024/03/14 02:22:21;;;;;;;57.03;29.47;;;5.80;99.90;;;;;;5096873;28;20233;-73
2024/03/14 02:25:08;;;;;;;54.93;29.17;;;5.80;99.90;;;;;;5111512;28;20190;-73
2024/03/14 02:27:56;;;;;;;52.77;29.47;;;5.70;99.90;;;;;;5110364;28;20200;-73
2024/03/14 02:30:44;;;;;;;54.90;29.00;;;5.80;99.90;;;;;;5110529;28;20193;-72
2024/03/14 02:33:32;;;;;;;55.43;28.93;;;5.90;99.90;;;;;;5112336;28;20657;-73
2024/03/14 02:36:20;;;;;;;53.77;28.70;;;5.90;99.90;;;;;;5111654;28;20313;-73
2024/03/14 02:39:10;;;;;;;54.07;28.23;;;5.90;99.90;;;;;;5110816;28;20277;-73
2024/03/14 02:41:59;;;;;;;52.27;27.60;;;5.90;99.90;;;;;;5095937;28;20195;-73
2024/03/14 02:44:47;;;;;;;49.90;27.57;;;5.80;99.90;;;;;;5112054;28;20200;-72
2024/03/14 02:47:37;;;;;;;50.63;26.73;;;5.80;99.90;;;;;;5099905;28;20200;-72
2024/03/14 02:50:24;;;;;;;51.17;26.73;;;5.80;99.90;;;;;;5114259;28;20722;-72
2024/03/14 02:53:13;;;;;;;48.63;26.97;;;5.90;99.90;;;;;;5115184;28;20211;-72
2024/03/14 02:56:00;;;;;;;51.13;26.60;;;5.80;99.90;;;;;;5116822;28;20702;-73
2024/03/14 02:58:49;;;;;;;49.03;27.03;;;5.80;99.90;;;;;;5099919;28;20202;-73
2024/03/14 03:01:39;;;;;;;49.73;26.00;;;5.80;99.90;;;;;;5118807;28;20587;-73
2024/03/14 03:04:30;;;;;;;48.07;25.57;;;5.90;99.90;;;;;;5118511;28;20204;-73
2024/03/14 03:07:18;;;;;;;46.00;25.43;;;5.70;99.90;;;;;;5114413;28;20636;-73
2024/03/14 03:10:07;;;;;;;50.80;26.63;;;5.70;99.90;;;;;;5099899;28;20277;-73
2024/03/14 03:12:54;;;;;;;46.00;25.00;;;5.80;99.90;;;;;;5113351;28;20331;-73
2024/03/14 03:15:42;;;;;;;44.93;25.27;;;5.80;99.90;;;;;;5099465;28;20238;-72
2024/03/14 03:18:32;;;;;;;44.33;24.10;;;5.80;99.90;;;;;;5113456;28;20579;-73
2024/03/14 03:21:20;;;;;;;46.13;24.57;;;5.70;99.90;;;;;;5099342;28;20348;-73
2024/03/14 03:24:08;;;;;;;46.73;24.83;;;5.70;99.90;;;;;;5112522;28;20212;-73
2024/03/14 03:26:56;;;;;;;43.13;23.53;;;5.60;99.90;;;;;;5113020;28;20196;-73
2024/03/14 03:29:44;;;;;;;44.33;24.77;;;5.60;99.90;;;;;;5099060;28;20195;-73
2024/03/14 03:32:31;;;;;;;43.97;23.73;;;5.70;99.90;;;;;;5113665;28;20560;-73
2024/03/14 03:35:21;;;;;;;43.43;24.90;;;5.70;99.90;;;;;;5098593;28;20360;-73
2024/03/14 03:38:16;;;;;;;44.37;25.00;;;5.60;99.90;;;;;;5112705;28;20199;-73
2024/03/14 03:41:03;;;;;;;44.57;24.07;;;5.60;99.90;;;;;;5112492;28;20661;-73
2024/03/14 03:43:50;;;;;;;42.90;22.60;;;5.50;99.90;;;;;;5100215;28;20692;-73
2024/03/14 03:46:44;;;;;;;39.77;21.53;;;5.60;99.90;;;;;;5114181;28;20196;-73
2024/03/14 03:49:32;;;;;;;36.87;21.13;;;5.60;99.90;;;;;;5084874;28;20223;-73
2024/03/14 03:52:19;;;;;;;39.30;22.20;;;5.60;99.90;;;;;;5112148;28;20199;-73
2024/03/14 03:55:07;;;;;;;41.03;21.57;;;5.60;99.90;;;;;;5098443;28;20642;-73
2024/03/14 03:57:56;;;;;;;39.97;21.33;;;5.60;99.90;;;;;;5112742;28;20196;-72
2024/03/14 04:00:46;;;;;;;41.97;22.47;;;5.60;99.90;;;;;;5112828;28;20196;-73
2024/03/14 04:03:34;;;;;;;40.70;21.87;;;5.60;99.90;;;;;;5098186;28;20219;-72
2024/03/14 04:06:21;;;;;;;39.77;22.27;;;5.60;99.90;;;;;;5098417;28;20225;-72
2024/03/14 04:09:15;;;;;;;40.77;22.90;;;5.60;99.90;;;;;;5112623;28;20192;-73
2024/03/14 04:12:03;;;;;;;43.07;23.30;;;5.60;99.90;;;;;;5112848;28;20200;-73
2024/03/14 04:14:51;;;;;;;42.23;22.90;;;5.60;99.90;;;;;;5112712;28;20535;-73
2024/03/14 04:17:39;;;;;;;39.53;22.57;;;5.50;99.90;;;;;;5112267;28;20222;-73
2024/03/14 04:20:29;;;;;;;44.63;23.90;;;5.50;99.90;;;;;;5111804;28;20212;-73
2024/03/14 04:23:17;;;;;;;41.13;22.60;;;5.60;99.90;;;;;;5099832;28;20630;-73
2024/03/14 04:26:04;;;;;;;39.87;22.07;;;5.60;99.90;;;;;;5111678;28;20199;-72
2024/03/14 04:28:52;;;;;;;40.33;21.67;;;5.60;99.90;;;;;;5112721;28;20216;-73
2024/03/14 04:31:39;;;;;;;42.43;22.10;;;5.60;99.90;;;;;;5111427;28;20192;-73
2024/03/14 04:34:27;;;;;;;40.03;21.47;;;5.50;99.90;;;;;;5097676;28;20222;-73
2024/03/14 04:37:15;;;;;;;42.83;22.63;;;5.50;99.90;;;;;;5112768;28;20218;-73
2024/03/14 04:40:17;;;;;;;39.00;21.23;;;5.50;99.90;;;;;;5098257;28;20188;-73
2024/03/14 04:43:04;;;;;;;40.30;21.67;;;5.50;99.90;;;;;;5097301;28;20222;-73
2024/03/14 04:45:52;;;;;;;40.27;21.10;;;5.60;99.90;;;;;;5111899;28;20327;-73
2024/03/14 04:48:39;;;;;;;39.07;20.63;;;5.60;99.90;;;;;;5097314;28;20224;-73
2024/03/14 04:51:27;;;;;;;38.23;21.07;;;5.50;99.90;;;;;;5112632;28;20216;-73
2024/03/14 04:54:14;;;;;;;38.43;21.17;;;5.50;99.90;;;;;;5096901;28;20538;-73
2024/03/14 04:57:02;;;;;;;41.93;21.40;;;5.40;99.90;;;;;;5111429;28;20531;-73
2024/03/14 04:59:49;;;;;;;39.47;21.10;;;5.40;99.90;;;;;;5111073;28;20683;-73
2024/03/14 05:02:40;;;;;;;40.17;21.23;;;5.40;99.90;;;;;;5111192;28;20197;-73
2024/03/14 05:05:28;;;;;;;41.57;20.87;;;5.40;99.90;;;;;;5111488;28;20569;-73
2024/03/14 05:08:15;;;;;;;40.60;21.00;;;5.40;99.90;;;;;;5097339;28;20565;-73
2024/03/14 05:11:03;;;;;;;39.90;21.40;;;5.30;99.90;;;;;;5111755;28;20316;-73
2024/03/14 05:13:56;;;;;;;40.47;20.83;;;5.50;99.90;;;;;;5111680;28;20194;-73
2024/03/14 05:16:45;;;;;;;39.60;20.20;;;5.40;99.90;;;;;;5113153;28;20282;-73
2024/03/14 05:19:32;;;;;;;38.27;20.53;;;5.40;99.90;;;;;;5096975;28;20214;-73
2024/03/14 05:22:19;;;;;;;40.97;21.10;;;5.50;99.90;;;;;;5110973;28;20200;-73
2024/03/14 05:25:09;;;;;;;37.03;20.23;;;5.60;99.90;;;;;;5110750;28;20189;-73
2024/03/14 05:27:57;;;;;;;35.33;20.07;;;5.60;99.90;;;;;;5097203;28;20194;-73
2024/03/14 05:30:44;;;;;;;36.17;20.17;;;5.60;99.90;;;;;;5110416;28;20208;-72
2024/03/14 05:33:32;;;;;;;38.67;20.60;;;5.60;99.90;;;;;;5111679;28;20195;-72
2024/03/14 05:36:19;;;;;;;38.70;20.70;;;5.60;99.90;;;;;;5110578;28;20226;-72
2024/03/14 05:39:07;;;;;;;35.77;19.97;;;5.50;99.90;;;;;;5111216;28;20204;-72
2024/03/14 05:41:55;;;;;;;35.97;19.63;;;5.40;99.90;;;;;;5097142;28;20239;-73
2024/03/14 05:44:42;;;;;;;37.07;20.40;;;5.40;99.90;;;;;;5110166;28;20689;-73
2024/03/14 05:47:29;;;;;;;38.43;20.47;;;5.50;99.90;;;;;;5110971;28;20582;-72
2024/03/14 05:50:17;;;;;;;37.17;19.67;;;5.50;99.90;;;;;;5096373;28;20212;-73
2024/03/14 05:53:05;;;;;;;40.23;20.77;;;5.30;99.90;;;;;;5098283;28;20242;-73
2024/03/14 05:55:52;;;;;;;36.07;19.97;;;5.40;99.90;;;;;;5110585;28;20227;-72
2024/03/14 05:58:39;;;;;;;39.30;20.77;;;5.30;99.90;;;;;;5110808;28;20559;-73
2024/03/14 06:01:28;;;;;;;39.33;20.60;;;5.30;99.90;;;;;;5096999;28;20270;-73
2024/03/14 06:04:16;;;;;;;43.17;21.10;;;5.30;99.90;;;;;;5096011;28;20222;-73
2024/03/14 06:07:03;;;;;;;41.87;20.47;;;5.40;99.90;;;;;;5110008;28;20195;-73
2024/03/14 06:09:50;;;;;;;41.40;21.07;;;5.60;99.90;;;;;;5096210;28;20282;-73
2024/03/14 06:12:39;;;;;;;42.13;21.47;;;5.60;99.90;;;;;;5096430;28;20248;-73
2024/03/14 06:15:26;;;;;;;37.93;20.57;;;5.70;99.90;;;;;;5110959;28;20197;-74
2024/03/14 06:18:14;;;;;;;38.27;21.03;;;5.60;99.90;;;;;;5111201;28;20193;-74
2024/03/14 06:21:01;;;;;;;37.33;21.00;;;5.60;99.90;;;;;;5110534;28;20562;-73
2024/03/14 06:23:51;;;;;;;40.90;21.93;;;5.70;99.90;;;;;;5110140;28;20216;-73
2024/03/14 06:26:39;;;;;;;40.07;21.27;;;5.70;99.90;;;;;;5110750;28;20210;-73
2024/03/14 06:29:26;;;;;;;40.73;20.53;;;5.60;99.90;;;;;;5110175;28;20282;-74
2024/03/14 06:32:14;;;;;;;38.77;21.27;;;5.70;99.90;;;;;;5097362;28;20203;-73
2024/03/14 06:35:02;;;;;;;39.10;21.00;;;5.70;99.90;;;;;;5097312;28;20214;-73
2024/03/14 06:37:53;;;;;;;45.17;23.43;;;5.80;99.90;;;;;;5114157;28;20718;-74
2024/03/14 06:40:40;;;;;;;40.50;22.10;;;5.90;99.90;;;;;;5113911;28;20196;-73
2024/03/14 06:43:28;;;;;;;42.63;22.17;;;5.90;99.90;;;;;;5113330;28;20700;-74
2024/03/14 06:46:16;;;;;;;40.80;21.67;;;6.00;99.90;;;;;;5101392;28;20203;-73
2024/03/14 06:49:04;;;;;;;38.97;21.53;;;6.00;99.90;;;;;;5114252;28;20217;-73
2024/03/14 06:51:52;;;;;;;42.87;22.57;;;6.00;99.90;;;;;;5113956;28;20283;-74
2024/03/14 06:54:39;;;;;;;40.60;21.87;;;5.90;99.90;;;;;;5099540;28;20189;-73
2024/03/14 06:57:27;;;;;;;42.93;22.77;;;5.90;99.90;;;;;;5100060;28;20216;-73
2024/03/14 07:00:17;;;;;;;39.00;21.83;;;6.00;99.90;;;;;;5113327;28;20212;-73
2024/03/14 07:03:07;;;;;;;38.97;22.53;;;6.10;99.90;;;;;;5113839;28;20204;-73
2024/03/14 07:05:57;;;;;;;44.10;23.07;;;6.20;99.90;;;;;;5099611;28;20196;-73
2024/03/14 07:08:46;;;;;;;42.47;23.00;;;6.30;99.90;;;;;;5113071;28;20186;-74
2024/03/14 07:11:33;;;;;;;44.07;23.23;;;6.50;99.90;;;;;;5113280;28;20652;-73
2024/03/14 07:14:23;;;;;;;41.40;22.67;;;6.60;99.90;;;;;;5112889;28;20196;-73
2024/03/14 07:17:10;;;;;;;42.23;23.53;;;6.70;99.90;;;;;;5112810;28;20677;-74
2024/03/14 07:19:59;;;;;;;41.27;22.87;;;6.90;99.90;;;;;;5099537;28;20297;-73
2024/03/14 07:22:46;;;;;;;48.33;25.00;;;6.80;99.90;;;;;;5099223;28;20222;-73
2024/03/14 07:25:34;;;;;;;44.77;23.17;;;6.70;99.90;;;;;;5113776;28;20200;-73
2024/03/14 07:28:22;;;;;;;45.50;24.07;;;6.60;99.90;;;;;;5114472;28;20192;-73
2024/03/14 07:31:13;;;;;;;44.77;23.97;;;6.60;99.90;;;;;;5113416;28;20212;-73
2024/03/14 07:34:10;;;;;;;49.47;24.07;;;6.80;99.90;;;;;;5114308;28;20707;-73
2024/03/14 07:36:58;;;;;;;45.27;22.77;;;6.80;99.90;;;;;;5112579;28;20293;-73
2024/03/14 07:39:45;;;;;;;43.73;23.63;;;6.90;99.90;;;;;;5113231;28;20192;-74
2024/03/14 07:42:33;;;;;;;44.47;24.50;;;6.90;99.90;;;;;;5113531;28;20198;-74
2024/03/14 07:45:22;;;;;;;50.33;24.10;;;6.90;99.90;;;;;;5099744;28;20223;-73
2024/03/14 07:48:10;;;;;;;46.10;24.00;;;7.10;99.90;;;;;;5113084;28;20207;-73
2024/03/14 07:51:01;;;;;;;43.50;23.37;;;7.20;99.90;;;;;;5112575;28;20195;-74
2024/03/14 07:53:49;;;;;;;43.43;23.20;;;7.30;99.90;;;;;;5113068;28;20223;-74
2024/03/14 07:56:37;;;;;;;39.77;22.13;;;7.60;99.90;;;;;;5113008;28;20287;-73
2024/03/14 07:59:24;;;;;;;44.40;23.90;;;7.60;99.90;;;;;;5112683;28;20231;-73
2024/03/14 08:02:16;;;;;;;43.00;22.70;;;7.60;99.90;;;;;;5113483;28;20207;-74
2024/03/14 08:05:06;;;;;;;45.07;23.90;;;7.70;99.90;;;;;;5113064;28;20233;-74
2024/03/14 08:07:54;;;;;;;43.67;23.43;;;7.70;99.90;;;;;;5112207;28;20190;-74
2024/03/14 08:11:03;;;;;;;42.67;23.40;;;7.90;99.90;;;;;;5101013;28;20206;-74
2024/03/14 08:13:51;;;;;;;42.17;23.03;;;8.00;99.90;;;;;;5115179;28;20655;-74
2024/03/14 08:16:38;;;;;;;46.63;23.83;;;8.10;99.90;;;;;;5112505;28;20648;-74
2024/03/14 08:19:28;;;;;;;41.87;22.20;;;8.10;99.90;;;;;;5098503;28;20232;-74
2024/03/14 08:22:18;;;;;;;43.83;23.57;;;8.10;99.90;;;;;;5098745;28;20284;-74
2024/03/14 08:25:15;;;;;;;43.83;23.23;;;8.20;99.90;;;;;;5111926;28;20220;-74
2024/03/14 08:28:04;;;;;;;42.53;23.70;;;8.20;99.90;;;;;;5112834;28;20280;-74
2024/03/14 08:30:52;;;;;;;44.93;23.87;;;8.20;99.90;;;;;;5111760;28;20210;-73
2024/03/14 08:33:39;;;;;;;45.50;24.60;;;8.20;99.90;;;;;;5097648;28;20281;-74
2024/03/14 08:36:27;;;;;;;44.17;24.17;;;8.20;99.90;;;;;;5112338;28;20323;-74
2024/03/14 08:39:17;;;;;;;46.90;24.40;;;8.30;99.90;;;;;;5112075;28;20188;-74
2024/03/14 08:42:08;;;;;;;45.83;24.33;;;8.30;99.90;;;;;;5097217;28;20679;-74
2024/03/14 08:44:55;;;;;;;45.83;23.77;;;8.30;99.90;;;;;;5111739;28;20655;-74
2024/03/14 08:47:44;;;;;;;44.90;23.93;;;8.20;99.90;;;;;;5097945;28;20289;-74
2024/03/14 08:50:32;;;;;;;42.30;23.80;;;8.20;99.90;;;;;;5112510;28;20212;-74
2024/03/14 08:53:20;;;;;;;44.87;22.87;;;8.10;99.90;;;;;;5111921;28;20673;-74
2024/03/14 08:56:07;;;;;;;47.10;23.70;;;7.90;99.90;;;;;;5112068;28;20216;-74
2024/03/14 08:58:59;;;;;;;46.20;22.90;;;8.10;99.90;;;;;;5111072;28;20184;-78
2024/03/14 09:01:46;;;;;;;43.10;22.53;;;8.20;99.90;;;;;;5097268;28;20286;-76
2024/03/14 09:04:35;;;;;;;42.73;22.83;;;8.30;99.90;;;;;;5111013;28;20223;-77
2024/03/14 09:07:23;;;;;;;45.87;23.17;;;8.40;99.90;;;;;;5111904;28;20200;-76
2024/03/14 09:10:23;;;;;;;37.17;20.70;;;8.60;99.90;;;;;;5111889;28;20192;-76
2024/03/14 09:13:11;;;;;;;37.47;20.37;;;8.60;99.90;;;;;;5111104;28;20200;-76
2024/03/14 09:15:58;;;;;;;38.70;21.10;;;8.60;99.90;;;;;;5110738;28;20720;-76
2024/03/14 09:18:45;;;;;;;41.70;21.33;;;8.50;99.90;;;;;;5110663;28;20299;-76
2024/03/14 09:21:33;;;;;;;37.10;20.57;;;8.30;99.90;;;;;;5112351;28;20192;-76
2024/03/14 09:24:22;;;;;;;35.93;19.90;;;8.10;99.90;;;;;;5111982;28;20215;-76
2024/03/14 09:27:11;;;;;;;38.07;19.43;;;8.30;99.90;;;;;;5096908;28;20314;-76
2024/03/14 09:29:59;;;;;;;32.07;17.13;;;8.40;99.90;;;;;;5097135;28;20200;-77
2024/03/14 09:32:47;;;;;;;30.67;17.47;;;8.30;99.90;;;;;;5111342;28;20196;-76
2024/03/14 09:35:41;;;;;;;33.10;18.40;;;8.00;99.90;;;;;;5096443;28;20240;-76
2024/03/14 09:38:29;;;;;;;36.57;18.73;;;8.00;99.90;;;;;;5097345;28;20217;-77
2024/03/14 09:41:16;;;;;;;34.97;18.80;;;8.10;99.90;;;;;;5110229;28;20194;-77
2024/03/14 09:44:09;;;;;;;32.63;17.87;;;8.30;99.90;;;;;;5110903;28;20231;-77
2024/03/14 09:47:17;;;;;;;32.37;18.03;;;8.40;99.90;;;;;;5111486;28;20193;-76
2024/03/14 09:50:09;;;;;;;36.43;18.73;;;8.30;99.90;;;;;;5098644;28;20349;-75
2024/03/14 09:52:56;;;;;;;33.47;18.63;;;8.20;99.90;;;;;;5096782;28;20196;-76
2024/03/14 09:55:46;;;;;;;35.00;18.47;;;8.40;99.90;;;;;;5110420;28;20205;-75
2024/03/14 09:58:33;;;;;;;34.60;18.13;;;8.50;99.90;;;;;;5110289;28;20277;-76
2024/03/14 10:01:21;;;;;;;33.90;18.40;;;8.60;99.90;;;;;;5110470;28;20200;-76
2024/03/14 10:04:11;;;;;;;35.00;18.63;;;8.60;99.90;;;;;;5109975;28;20275;-76
2024/03/14 10:07:00;;;;;;;32.73;17.37;;;8.80;99.90;;;;;;5110591;28;20214;-77
2024/03/14 10:09:48;;;;;;;33.93;17.83;;;8.90;99.90;;;;;;5114055;28;20215;-78
2024/03/14 10:12:51;;;;;;;32.60;17.53;;;9.00;99.90;;;;;;5114897;28;20801;-77
2024/03/14 10:15:39;;;;;;;31.23;17.73;;;9.00;99.90;;;;;;5114986;28;20181;-77
2024/03/14 10:18:27;;;;;;;33.33;17.83;;;8.90;99.90;;;;;;5099908;28;20546;-77
2024/03/14 10:21:17;;;;;;;32.33;17.40;;;9.00;99.90;;;;;;5100447;28;20225;-77
2024/03/14 10:24:09;;;;;;;33.80;18.33;;;9.10;99.90;;;;;;5099897;28;20212;-77
2024/03/14 10:26:58;;;;;;;31.73;18.00;;;9.20;99.90;;;;;;5115377;28;20185;-77
2024/03/14 10:29:53;;;;;;;34.10;18.40;;;9.70;99.90;;;;;;5100483;28;20291;-78
2024/03/14 10:32:41;;;;;;;36.63;19.37;;;9.60;99.90;;;;;;5114619;28;20185;-77
2024/03/14 10:35:30;;;;;;;31.43;18.00;;;9.70;99.90;;;;;;5099715;28;20311;-77
2024/03/14 10:38:23;;;;;;;32.23;17.57;;;9.90;99.90;;;;;;5100513;28;20714;-78
2024/03/14 10:41:14;;;;;;;35.77;18.23;;;10.40;99.90;;;;;;5099952;28;20196;-78
2024/03/14 10:44:06;;;;;;;33.33;18.13;;;11.00;99.90;;;;;;5114149;28;20216;-82
2024/03/14 10:46:54;;;;;;;35.27;18.00;;;11.40;99.90;;;;;;5115077;28;20193;-81
2024/03/14 10:49:45;;;;;;;28.70;16.00;;;12.10;99.90;;;;;;5099986;28;20213;-81
2024/03/14 10:52:33;;;;;;;31.77;16.57;;;11.80;99.90;;;;;;5099940;28;20314;-83
2024/03/14 10:55:22;;;;;;;29.60;16.83;;;12.00;99.90;;;;;;5114961;28;20197;-79
2024/03/14 10:58:11;;;;;;;28.80;16.23;;;12.20;99.90;;;;;;5100437;28;20192;-81
2024/03/14 11:01:00;;;;;;;30.33;16.90;;;12.50;99.90;;;;;;5113888;28;20189;-80
2024/03/14 11:03:48;;;;;;;30.27;16.17;;;12.60;99.90;;;;;;5113313;28;20213;-84
2024/03/14 11:06:38;;;;;;;28.90;15.90;;;12.90;99.90;;;;;;5114306;28;20203;-83
2024/03/14 11:09:29;;;;;;;28.13;16.00;;;13.40;99.90;;;;;;5087267;28;20280;-84
2024/03/14 11:12:23;;;;;;;25.27;14.93;;;14.00;99.90;;;;;;5114949;28;20204;-82
2024/03/14 11:15:16;;;;;;;28.23;15.80;;;14.30;99.90;;;;;;5114713;28;20243;-82
2024/03/14 11:18:13;;;;;;;26.83;15.23;;;14.90;99.90;;;;;;5114363;28;20800;-82
2024/03/14 11:21:04;;;;;;;25.80;15.27;;;15.30;99.90;;;;;;5113157;28;20196;-83
2024/03/14 11:23:54;;;;;;;28.30;16.93;;;15.60;99.90;;;;;;5113523;28;20266;-82
2024/03/14 11:26:45;;;;;;;24.87;14.40;;;15.50;99.90;;;;;;5099524;28;20251;-81
2024/03/14 11:29:34;;;;;;;25.80;15.40;;;15.90;99.90;;;;;;5113790;28;20681;-82
2024/03/14 11:32:23;;;;;;;27.57;15.67;;;16.40;99.90;;;;;;5113432;28;20861;-81
2024/03/14 11:35:45;;;;;;;25.77;15.67;;;16.50;99.90;;;;;;5113374;28;20683;-82
2024/03/14 11:38:33;;;;;;;27.53;15.50;;;16.60;99.90;;;;;;5113452;28;20271;-83
2024/03/14 11:41:20;;;;;;;28.47;16.43;;;16.30;99.90;;;;;;5113702;28;20569;-82
2024/03/14 11:44:14;;;;;;;26.30;15.43;;;16.30;99.90;;;;;;5113354;28;20197;-83
2024/03/14 11:47:02;;;;;;;25.63;15.20;;;16.60;99.90;;;;;;5098514;28;20272;-84
2024/03/14 11:49:49;;;;;;;24.67;15.63;;;16.40;99.90;;;;;;5112656;28;20212;-83
2024/03/14 11:52:37;;;;;;;27.63;15.77;;;17.30;99.90;;;;;;5112777;28;20269;-83
2024/03/14 11:55:24;;;;;;;25.07;16.33;;;18.60;99.90;;;;;;5099433;28;20224;-82
2024/03/14 11:58:15;;;;;;;26.47;16.57;;;18.90;99.90;;;;;;5112912;28;20210;-84
2024/03/14 12:01:05;;;;;;;25.97;16.33;;;19.00;99.90;;;;;;5113089;28;20559;-83
2024/03/14 12:03:52;;;;;;;27.37;16.90;;;19.50;99.90;;;;;;5112479;28;20208;-83
2024/03/14 12:06:41;;;;;;;28.33;17.47;;;20.20;99.90;;;;;;5112943;28;20189;-84
2024/03/14 12:09:31;;;;;;;28.60;17.93;;;20.60;98.40;;;;;;5113281;28;20573;-83
2024/03/14 12:12:19;;;;;;;31.80;19.87;;;21.10;97.30;;;;;;5099108;28;20192;-83
2024/03/14 12:15:10;;;;;;;29.47;19.50;;;20.80;94.90;;;;;;5112125;28;20197;-84
2024/03/14 12:17:58;;;;;;;33.77;20.10;;;20.90;93.70;;;;;;5114371;28;20232;-85
2024/03/14 12:20:48;;;;;;;32.40;20.83;;;20.40;93.40;;;;;;5114463;28;20192;-85
2024/03/14 12:23:35;;;;;;;30.77;19.03;;;20.50;93.80;;;;;;5098342;28;20548;-83
2024/03/14 12:26:24;;;;;;;31.60;20.13;;;21.10;93.00;;;;;;5112627;28;20212;-84
2024/03/14 12:29:11;;;;;;;33.57;21.23;;;21.30;92.10;;;;;;5112549;28;20201;-83
2024/03/14 12:32:00;;;;;;;33.33;20.47;;;21.50;91.30;;;;;;5112280;28;20611;-83
2024/03/14 12:34:48;;;;;;;35.77;21.37;;;21.60;91.10;;;;;;5097688;28;20215;-82
2024/03/14 12:37:36;;;;;;;31.17;20.57;;;22.20;89.70;;;;;;5113411;28;20189;-82
2024/03/14 12:40:24;;;;;;;34.35;21.90;;;22.90;86.70;;;;;;5112969;28;20197;-83
2024/03/14 12:46:22;;;;;;;33.57;21.73;;;22.20;86.50;;;;;;5050011;28;20226;-82
2024/03/14 12:49:11;;;;;;;37.03;22.15;;;22.50;84.70;;;;;;5050542;28;20211;-82
2024/03/14 12:51:58;;;;;;;32.50;20.33;;;22.60;84.00;;;;;;5050926;28;20294;-83
2024/03/14 12:54:49;;;;;;;32.95;21.20;;;23.00;84.10;;;;;;5050407;28;20294;-83
2024/03/14 12:57:38;;;;;;;44.65;26.38;;;23.60;81.30;;;;;;5050240;28;20686;-83
2024/03/14 13:00:31;;;;;;;47.45;29.05;;;23.30;81.70;;;;;;5050294;28;20203;-84
2024/03/14 13:03:22;;;;;;;44.03;28.30;;;22.90;81.90;;;;;;5037411;28;20750;-84
2024/03/14 13:06:23;;;;;;;47.33;29.50;;;21.80;84.10;;;;;;5049439;28;20234;-84
2024/03/14 13:09:20;;;;;;;46.60;28.60;;;20.40;88.20;;;;;;5050349;28;20191;-83
2024/03/14 13:12:17;;;;;;;50.10;29.97;;;19.40;90.90;;;;;;5049895;28;20224;-83
2024/03/14 13:15:14;;;;;;;48.90;29.10;;;18.80;92.50;;;;;;5050053;28;20563;-83
2024/03/14 13:18:04;;;;;;;49.67;27.83;;;18.00;93.40;;;;;;5037198;28;20187;-81
2024/03/14 13:20:55;;;;;;;48.83;27.33;;;17.10;95.40;;;;;;5049625;28;20276;-84
2024/03/14 13:23:45;;;;;;;45.20;27.17;;;16.60;97.30;;;;;;5093258;28;20216;-84
2024/03/14 13:26:33;;;;;;;48.20;27.20;;;16.60;97.90;;;;;;5111718;28;20219;-83
2024/03/14 13:29:25;;;;;;;45.50;27.13;;;16.80;98.70;;;;;;5111777;28;20657;-84
2024/03/14 13:32:14;;;;;;;44.77;26.73;;;17.60;97.20;;;;;;5111698;28;20189;-84
2024/03/14 13:35:02;;;;;;;43.60;26.90;;;17.80;96.70;;;;;;5095430;28;20209;-84
2024/03/14 13:37:50;;;;;;;45.47;26.13;;;18.00;96.40;;;;;;5111417;28;20201;-83
2024/03/14 13:40:39;;;;;;;46.20;27.33;;;18.20;96.10;;;;;;5112011;28;20334;-77
2024/03/14 13:43:32;;;;;;;47.37;27.57;;;17.90;96.10;;;;;;5097045;28;20731;-81
2024/03/14 13:46:20;;;;;;;45.57;27.17;;;17.30;97.00;;;;;;5111052;28;20213;-79
2024/03/14 13:49:11;;;;;;;45.33;25.97;;;17.20;97.60;;;;;;5111564;28;20212;-79
2024/03/14 13:52:03;;;;;;;43.07;26.33;;;17.30;98.00;;;;;;5112763;28;20195;-79
2024/03/14 13:55:19;;;;;;;41.53;25.13;;;17.20;98.10;;;;;;4999692;28;20234;-78
2024/03/14 13:58:07;;;;;;;44.87;26.07;;;17.30;98.70;;;;;;5010804;28;20623;-78
2024/03/14 14:00:56;;;;;;;42.30;25.20;;;17.10;98.80;;;;;;5010738;28;20205;-79
2024/03/14 14:03:43;;;;;;;42.23;25.13;;;17.40;98.60;;;;;;5009570;28;20212;-79
2024/03/14 14:06:37;;;;;;;38.80;24.63;;;17.40;98.10;;;;;;5010590;28;20306;-79
2024/03/14 14:09:27;;;;;;;38.93;24.40;;;17.30;97.90;;;;;;5010774;28;20613;-78
2024/03/14 14:12:14;;;;;;;39.73;23.67;;;17.00;98.40;;;;;;5010814;28;20204;-79
2024/03/14 14:15:02;;;;;;;36.63;23.23;;;17.10;98.80;;;;;;5010040;28;20631;-79
2024/03/14 14:17:50;;;;;;;38.03;23.53;;;17.30;98.60;;;;;;5008775;28;20258;-79
2024/03/14 14:20:40;;;;;;;38.20;23.87;;;17.60;97.90;;;;;;5009391;28;20219;-79
2024/03/14 14:23:28;;;;;;;36.90;24.17;;;17.50;97.50;;;;;;5010479;28;20716;-78
2024/03/14 14:26:18;;;;;;;41.00;24.03;;;17.00;98.00;;;;;;5010107;28;20224;-78
2024/03/14 14:29:07;;;;;;;36.80;23.03;;;16.90;98.90;;;;;;5009304;28;20189;-79
2024/03/14 14:31:55;;;;;;;34.33;22.23;;;17.10;98.80;;;;;;5054915;28;20211;-79
2024/03/14 14:34:44;;;;;;;39.20;22.90;;;16.80;98.90;;;;;;5110358;28;20239;-79
2024/03/14 14:37:32;;;;;;;34.97;23.00;;;16.70;98.80;;;;;;5111649;28;20268;-78